KACV

California Redwood Coast-Humboldt County Airport

Arcata/Eureka, California, USA
METAR KACV 221753Z AUTO VRB05KT 7SM FEW008 SCT012 13/09 A3013 RMK AO2 SLP208 T01280089 10128 20083 58011 $
Observed Flight Rules
Apr-22 @ 17:53 UTC (30 minutes ago) Visual Flight Rules
Wind Visibility Clouds
Variable at 5 knots 7 miles
  • Few at 800' AGL
  • Scattered at 1,200' AGL
Temperatures Readings
Current 13°C / 55°F
Dewpoint 9°C / 48°F
Humidity 77%
Altimeter 30.13" Hg
Pressure 1020.8 hPa
Elevation 67
METAR KACV 221753Z AUTO VRB05KT 7SM FEW008 SCT012 13/09 A3013 RMK AO2 SLP208 T01280089 10128 20083 58011 $
Observed Flight Rules
Apr-22 @ 17:53 UTC
(30 minutes ago)
VFR
Wind Visibility
Variable at 5 knots 7 miles
Clouds
  • Few at 800' AGL
  • Scattered at 1,200' AGL
Temperature Dewpoint
13°C / 55°F 9°C / 48°F
Humidity Altimeter Pressure
77% 30.13" Hg 1020.8 hPa